createdAt,value
2023-03-21T00:01:00.785Z,97.20
2023-03-21T00:03:51.604Z,97.65
2023-03-21T00:06:41.610Z,96.67
2023-03-21T00:09:30.372Z,96.62
2023-03-21T00:12:21.065Z,96.19
2023-03-21T00:15:11.549Z,96.33
2023-03-21T00:18:03.597Z,96.05
2023-03-21T00:21:29.298Z,96.08
2023-03-21T00:24:09.610Z,97.30
2023-03-21T00:27:10.724Z,97.92
2023-03-21T00:30:07.873Z,98.40
2023-03-21T00:32:57.029Z,98.13
2023-03-21T00:36:02.500Z,98.17
2023-03-21T00:38:53.482Z,98.67
2023-03-21T00:41:43.635Z,98.95
2023-03-21T00:44:36.688Z,98.38
2023-03-21T00:47:25.986Z,98.60
2023-03-21T00:50:14.811Z,99.01
2023-03-21T00:53:03.321Z,100.00
2023-03-21T00:55:51.867Z,99.98
2023-03-21T00:58:41.690Z,99.85
2023-03-21T01:01:34.509Z,99.93
2023-03-21T01:04:26.411Z,99.92
2023-03-21T01:07:14.995Z,100.00
2023-03-21T01:10:03.765Z,100.00
2023-03-21T01:12:52.158Z,100.00
2023-03-21T01:15:46.882Z,100.00
2023-03-21T01:18:37.176Z,100.00
2023-03-21T01:21:25.707Z,100.00
2023-03-21T01:24:14.212Z,100.00
2023-03-21T01:27:03.490Z,100.00
2023-03-21T01:29:52.012Z,100.00
2023-03-21T01:32:41.856Z,100.00
2023-03-21T01:35:37.438Z,100.00
2023-03-21T01:38:29.671Z,100.00
2023-03-21T01:41:26.223Z,100.00
2023-03-21T01:44:18.334Z,100.00
2023-03-21T01:47:11.988Z,100.00
2023-03-21T01:50:03.438Z,100.00
2023-03-21T01:52:51.999Z,100.00
2023-03-21T01:55:40.947Z,100.00
2023-03-21T01:58:29.967Z,100.00
2023-03-21T02:01:18.790Z,100.00
2023-03-21T02:04:09.153Z,100.00
2023-03-21T02:07:01.928Z,100.00
2023-03-21T02:09:51.253Z,100.00
2023-03-21T02:12:39.744Z,100.00
2023-03-21T02:15:28.295Z,100.00
2023-03-21T02:18:24.502Z,100.00
2023-03-21T02:21:39.829Z,100.00
2023-03-21T02:25:04.205Z,100.00
2023-03-21T02:27:59.651Z,100.00
2023-03-21T02:31:08.437Z,100.00
2023-03-21T02:34:24.062Z,100.00
2023-03-21T02:37:23.560Z,100.00
2023-03-21T02:40:23.764Z,100.00
2023-03-21T02:43:23.418Z,100.00
2023-03-21T02:46:16.698Z,100.00
2023-03-21T02:49:09.387Z,100.00
2023-03-21T02:52:05.469Z,100.00
2023-03-21T02:55:06.005Z,100.00
2023-03-21T02:57:56.477Z,100.00
2023-03-21T03:00:45.353Z,100.00
2023-03-21T03:03:36.894Z,100.00
2023-03-21T03:06:27.796Z,100.00
2023-03-21T03:09:24.245Z,100.00
2023-03-21T03:12:23.604Z,100.00
2023-03-21T03:15:21.946Z,100.00
2023-03-21T03:18:13.530Z,100.00
2023-03-21T03:21:05.276Z,100.00
2023-03-21T03:23:55.828Z,100.00
2023-03-21T03:26:48.530Z,100.00
2023-03-21T03:29:40.443Z,100.00
2023-03-21T03:32:33.128Z,100.00
2023-03-21T03:35:23.735Z,100.00
2023-03-21T03:38:14.146Z,100.00
2023-03-21T03:41:04.427Z,100.00
2023-03-21T03:43:54.932Z,100.00
2023-03-21T03:46:48.749Z,100.00
2023-03-21T03:49:39.403Z,100.00
2023-03-21T03:52:30.462Z,100.00
2023-03-21T03:55:21.575Z,100.00
2023-03-21T03:58:21.120Z,100.00
2023-03-21T04:01:11.641Z,100.00
2023-03-21T04:04:12.569Z,100.00
2023-03-21T04:07:03.464Z,100.00
2023-03-21T04:09:52.050Z,100.00
2023-03-21T04:12:40.534Z,100.00
2023-03-21T04:15:29.029Z,100.00
2023-03-21T04:18:17.551Z,100.00
2023-03-21T04:21:10.713Z,100.00
2023-03-21T04:23:59.673Z,100.00
2023-03-21T04:26:48.413Z,100.00
2023-03-21T04:29:37.249Z,100.00
2023-03-21T04:32:26.422Z,100.00
2023-03-21T04:35:15.396Z,100.00
2023-03-21T04:38:05.532Z,100.00
2023-03-21T04:40:54.186Z,100.00
2023-03-21T04:43:42.698Z,100.00
2023-03-21T04:46:31.436Z,100.00
2023-03-21T04:49:19.917Z,100.00
2023-03-21T04:52:08.454Z,100.00
2023-03-21T04:54:58.355Z,100.00
2023-03-21T04:57:46.845Z,100.00
2023-03-21T05:00:37.519Z,100.00
2023-03-21T05:03:28.406Z,100.00
2023-03-21T05:06:16.977Z,100.00
2023-03-21T05:09:07.042Z,100.00
2023-03-21T05:11:57.332Z,100.00
2023-03-21T05:14:46.110Z,100.00
2023-03-21T05:17:34.672Z,100.00
2023-03-21T05:20:23.215Z,100.00
2023-03-21T05:23:12.192Z,100.00
2023-03-21T05:26:00.664Z,100.00
2023-03-21T05:28:51.495Z,100.00
2023-03-21T05:31:39.942Z,100.00
2023-03-21T05:34:29.078Z,100.00
2023-03-21T05:37:17.566Z,100.00
2023-03-21T05:40:07.635Z,100.00
2023-03-21T05:42:56.179Z,100.00
2023-03-21T05:45:48.375Z,100.00
2023-03-21T05:48:37.314Z,100.00
2023-03-21T05:51:25.817Z,100.00
2023-03-21T05:54:16.708Z,100.00
2023-03-21T05:57:05.648Z,100.00
2023-03-21T05:59:54.174Z,100.00
2023-03-21T06:02:44.684Z,100.00
2023-03-21T06:05:33.375Z,100.00
2023-03-21T06:08:21.867Z,100.00
2023-03-21T06:11:13.888Z,100.00
2023-03-21T06:14:02.386Z,100.00
2023-03-21T06:16:51.062Z,100.00
2023-03-21T06:19:41.018Z,100.00
2023-03-21T06:22:29.534Z,100.00
2023-03-21T06:25:18.247Z,99.35
2023-03-21T06:28:06.706Z,96.31
2023-03-21T06:30:55.332Z,96.30
2023-03-21T06:33:43.919Z,95.17
2023-03-21T06:36:33.762Z,94.37
2023-03-21T06:39:22.514Z,93.87
2023-03-21T06:42:11.404Z,94.75
2023-03-21T06:44:59.853Z,92.24
2023-03-21T06:47:48.345Z,91.52
2023-03-21T06:50:36.998Z,89.98
2023-03-21T06:53:28.053Z,89.44
2023-03-21T06:56:16.936Z,89.80
2023-03-21T06:59:05.512Z,89.60
2023-03-21T07:01:54.428Z,88.84
2023-03-21T07:04:42.890Z,90.07
2023-03-21T07:07:31.430Z,92.25
2023-03-21T07:10:21.418Z,90.95
2023-03-21T07:13:10.026Z,90.22
2023-03-21T07:15:58.488Z,89.06
2023-03-21T07:18:47.010Z,88.89
2023-03-21T07:21:35.766Z,88.80
2023-03-21T07:24:24.251Z,87.29
2023-03-21T07:27:14.206Z,84.20
2023-03-21T07:30:02.728Z,83.16
2023-03-21T07:32:51.272Z,81.13
2023-03-21T07:35:40.447Z,78.44
2023-03-21T07:38:30.882Z,77.16
2023-03-21T07:41:19.418Z,73.02
2023-03-21T07:44:09.267Z,72.38
2023-03-21T07:46:57.808Z,72.87
2023-03-21T07:49:49.258Z,69.27
2023-03-21T07:52:38.181Z,67.64
2023-03-21T07:55:26.672Z,66.47
2023-03-21T07:58:15.230Z,64.36
2023-03-21T08:01:05.459Z,62.91
2023-03-21T08:03:53.976Z,63.63
2023-03-21T08:06:42.568Z,61.13
2023-03-21T08:09:31.498Z,60.76
2023-03-21T08:12:20.033Z,60.82
2023-03-21T08:15:09.817Z,59.51
2023-03-21T08:18:01.230Z,59.63
2023-03-21T08:20:53.122Z,59.12
2023-03-21T08:23:41.612Z,59.31
2023-03-21T08:26:32.041Z,59.06
2023-03-21T08:29:21.493Z,58.07
2023-03-21T08:32:10.266Z,58.28
2023-03-21T08:35:01.267Z,59.21
2023-03-21T08:37:49.801Z,59.53
2023-03-21T08:40:38.727Z,62.54
2023-03-21T08:43:27.613Z,60.07
2023-03-21T08:46:16.432Z,59.74
2023-03-21T08:49:04.940Z,60.36
2023-03-21T08:51:57.936Z,60.34
2023-03-21T08:54:46.440Z,61.04
2023-03-21T08:57:34.996Z,60.67
2023-03-21T09:00:24.014Z,61.37
2023-03-21T09:03:12.527Z,60.54
2023-03-21T09:06:03.014Z,59.47
2023-03-21T09:08:53.443Z,60.40
2023-03-21T09:11:42.082Z,61.77
2023-03-21T09:14:30.567Z,61.33
2023-03-21T09:17:21.154Z,61.34
2023-03-21T09:20:18.562Z,62.19
2023-03-21T09:23:07.456Z,62.87
2023-03-21T09:25:57.421Z,62.38
2023-03-21T09:28:47.426Z,61.66
2023-03-21T09:31:35.965Z,61.94
2023-03-21T09:34:24.625Z,62.78
2023-03-21T09:37:13.757Z,62.88
2023-03-21T09:40:02.452Z,62.14
2023-03-21T09:42:59.947Z,62.84
2023-03-21T09:45:52.612Z,62.94
2023-03-21T09:48:56.622Z,62.45
2023-03-21T09:51:48.804Z,62.71
2023-03-21T09:54:39.387Z,62.43
2023-03-21T09:57:34.165Z,62.69
2023-03-21T10:00:29.926Z,63.30
2023-03-21T10:03:24.314Z,63.77
2023-03-21T10:06:16.436Z,62.99
2023-03-21T10:09:07.351Z,62.57
2023-03-21T10:11:58.498Z,63.96
2023-03-21T10:14:49.487Z,64.23
2023-03-21T10:17:43.535Z,65.09
2023-03-21T10:20:33.413Z,63.67
2023-03-21T10:23:23.389Z,63.37
2023-03-21T10:26:14.882Z,63.32
2023-03-21T10:29:05.800Z,62.73
2023-03-21T10:31:55.815Z,63.34
2023-03-21T10:34:48.059Z,62.54
2023-03-21T10:37:36.587Z,63.17
2023-03-21T10:40:25.099Z,63.31
2023-03-21T10:43:21.767Z,63.62
2023-03-21T10:46:14.188Z,62.40
2023-03-21T10:49:03.155Z,62.30
2023-03-21T10:51:55.550Z,61.90
2023-03-21T10:54:44.151Z,61.58
2023-03-21T10:57:32.667Z,61.57
2023-03-21T11:00:23.211Z,62.81
2023-03-21T11:03:21.245Z,63.58
2023-03-21T11:06:14.828Z,62.98
2023-03-21T11:09:09.670Z,62.44
2023-03-21T11:12:04.403Z,62.61
2023-03-21T11:14:52.850Z,63.35
2023-03-21T11:17:41.734Z,63.21
2023-03-21T11:20:32.130Z,63.50
2023-03-21T11:23:21.217Z,61.16
2023-03-21T11:26:12.929Z,61.25
2023-03-21T11:29:01.969Z,59.83
2023-03-21T11:31:50.541Z,58.34
2023-03-21T11:34:46.062Z,59.75
2023-03-21T11:37:35.911Z,58.50
2023-03-21T11:40:26.272Z,57.36
2023-03-21T11:43:29.702Z,56.21
2023-03-21T11:46:24.228Z,55.95
2023-03-21T11:49:12.840Z,57.18
2023-03-21T11:52:07.581Z,56.01
2023-03-21T11:55:14.428Z,56.09
2023-03-21T11:58:15.182Z,55.74
2023-03-21T12:01:13.042Z,55.64
2023-03-21T12:04:12.188Z,56.44
2023-03-21T12:07:04.622Z,54.98
2023-03-21T12:09:57.599Z,54.89
2023-03-21T12:12:51.728Z,54.74
2023-03-21T12:15:44.719Z,53.86
2023-03-21T12:18:50.325Z,53.80
2023-03-21T12:21:44.803Z,53.82
2023-03-21T12:24:40.175Z,53.75
2023-03-21T12:27:38.291Z,53.95
2023-03-21T12:30:34.778Z,54.12
2023-03-21T12:33:33.997Z,53.38
2023-03-21T12:36:36.997Z,53.57
2023-03-21T12:39:29.716Z,52.70
2023-03-21T12:42:43.885Z,51.41
2023-03-21T12:45:46.218Z,52.12
2023-03-21T12:48:42.024Z,52.22
2023-03-21T12:51:34.178Z,51.86
2023-03-21T12:54:27.423Z,52.56
2023-03-21T12:57:18.885Z,52.45
2023-03-21T13:00:13.421Z,51.86
2023-03-21T13:03:05.610Z,51.67
2023-03-21T13:05:57.776Z,51.24
2023-03-21T13:08:49.844Z,50.46
2023-03-21T13:11:38.767Z,49.81
2023-03-21T13:14:29.332Z,50.77
2023-03-21T13:17:24.129Z,51.47
2023-03-21T13:20:20.257Z,50.62
2023-03-21T13:23:09.299Z,49.77
2023-03-21T13:25:59.153Z,49.72
2023-03-21T13:28:49.289Z,49.21
2023-03-21T13:31:50.930Z,47.76
2023-03-21T13:34:41.273Z,48.95
2023-03-21T13:37:32.099Z,48.06
2023-03-21T13:40:26.231Z,47.31
2023-03-21T13:43:40.663Z,47.72
2023-03-21T13:46:53.310Z,48.10
2023-03-21T13:49:42.620Z,48.65
2023-03-21T13:52:31.098Z,47.86
2023-03-21T13:55:21.964Z,49.16
2023-03-21T13:58:33.866Z,48.54
2023-03-21T14:01:28.755Z,49.32
2023-03-21T14:04:19.464Z,48.72
2023-03-21T14:07:12.297Z,47.88
2023-03-21T14:10:04.274Z,48.92
2023-03-21T14:12:54.982Z,49.00
2023-03-21T14:15:55.037Z,48.71
2023-03-21T14:18:54.186Z,49.51
2023-03-21T14:21:50.315Z,49.84
2023-03-21T14:24:40.099Z,48.80
2023-03-21T14:27:31.563Z,48.71
2023-03-21T14:30:26.082Z,48.31
2023-03-21T14:33:18.140Z,48.32
2023-03-21T14:36:12.116Z,48.31
2023-03-21T14:39:07.329Z,49.63
2023-03-21T14:41:57.367Z,48.45
2023-03-21T14:44:55.581Z,48.08
2023-03-21T14:47:55.926Z,50.00
2023-03-21T14:50:47.960Z,49.29
2023-03-21T14:53:40.587Z,47.49
2023-03-21T14:56:30.335Z,48.44
2023-03-21T14:59:22.166Z,49.58
2023-03-21T15:02:17.389Z,49.44
2023-03-21T15:05:11.710Z,49.56
2023-03-21T15:08:01.780Z,50.57
2023-03-21T15:11:06.883Z,48.55
2023-03-21T15:13:56.888Z,49.17
2023-03-21T15:16:45.644Z,48.70
2023-03-21T15:19:37.000Z,49.10
2023-03-21T15:22:33.337Z,49.16
2023-03-21T15:25:25.209Z,48.95
2023-03-21T15:28:15.689Z,46.90
2023-03-21T15:31:05.269Z,47.27
2023-03-21T15:33:55.263Z,48.81
2023-03-21T15:36:46.336Z,48.29
2023-03-21T15:39:36.269Z,48.58
2023-03-21T15:42:29.919Z,46.09
2023-03-21T15:45:23.006Z,46.45
2023-03-21T15:48:14.770Z,46.79
2023-03-21T15:51:05.642Z,46.27
2023-03-21T15:53:55.137Z,46.13
2023-03-21T15:56:45.973Z,46.42
2023-03-21T15:59:36.805Z,47.11
2023-03-21T16:02:31.292Z,46.31
2023-03-21T16:05:25.252Z,47.05
2023-03-21T16:08:24.444Z,46.67
2023-03-21T16:11:20.260Z,46.73
2023-03-21T16:14:08.881Z,47.07
2023-03-21T16:16:59.969Z,47.99
2023-03-21T16:19:49.807Z,46.87
2023-03-21T16:22:38.333Z,47.40
2023-03-21T16:25:27.013Z,47.50
2023-03-21T16:28:17.475Z,47.69
2023-03-21T16:31:06.132Z,48.40
2023-03-21T16:33:54.947Z,49.08
2023-03-21T16:36:44.853Z,49.63
2023-03-21T16:39:33.324Z,49.12
2023-03-21T16:42:21.815Z,49.21
2023-03-21T16:45:11.796Z,48.82
2023-03-21T16:48:00.949Z,49.07
2023-03-21T16:50:49.796Z,49.92
2023-03-21T16:53:39.895Z,49.98
2023-03-21T16:56:31.056Z,51.16
2023-03-21T16:59:19.613Z,51.80
2023-03-21T17:02:16.400Z,51.54
2023-03-21T17:05:07.100Z,52.16
2023-03-21T17:07:56.084Z,52.25
2023-03-21T17:10:46.788Z,51.97
2023-03-21T17:13:35.569Z,52.50
2023-03-21T17:16:27.148Z,53.18
2023-03-21T17:19:17.829Z,52.89
2023-03-21T17:22:06.724Z,53.06
2023-03-21T17:24:55.302Z,53.19
2023-03-21T17:27:45.754Z,53.36
2023-03-21T17:30:36.280Z,53.47
2023-03-21T17:33:24.872Z,53.42
2023-03-21T17:36:16.088Z,53.37
2023-03-21T17:39:06.865Z,53.17
2023-03-21T17:41:56.840Z,53.73
2023-03-21T17:44:46.741Z,54.16
2023-03-21T17:47:35.532Z,54.18
2023-03-21T17:50:26.398Z,55.33
2023-03-21T17:53:15.021Z,55.89
2023-03-21T17:56:03.588Z,56.03
2023-03-21T17:58:52.149Z,56.22
2023-03-21T18:01:42.568Z,55.92
2023-03-21T18:04:31.483Z,57.69
2023-03-21T18:07:38.105Z,58.45
2023-03-21T18:10:28.774Z,58.65
2023-03-21T18:13:17.498Z,59.05
2023-03-21T18:16:06.809Z,60.06
2023-03-21T18:18:56.755Z,60.41
2023-03-21T18:21:46.065Z,60.85
2023-03-21T18:24:34.685Z,61.15
2023-03-21T18:27:23.251Z,61.19
2023-03-21T18:30:36.227Z,61.68
2023-03-21T18:33:25.003Z,61.80
2023-03-21T18:36:24.026Z,62.64
2023-03-21T18:39:13.281Z,63.96
2023-03-21T18:42:03.713Z,64.83
2023-03-21T18:44:54.442Z,65.87
2023-03-21T18:47:43.282Z,66.20
2023-03-21T18:50:32.112Z,67.34
2023-03-21T18:53:22.480Z,67.58
2023-03-21T18:56:11.721Z,67.53
2023-03-21T18:59:03.255Z,67.79
2023-03-21T19:01:52.091Z,68.07
2023-03-21T19:04:40.761Z,68.21
2023-03-21T19:07:29.912Z,68.09
2023-03-21T19:10:21.843Z,68.02
2023-03-21T19:13:10.484Z,68.41
2023-03-21T19:15:59.063Z,69.32
2023-03-21T19:18:54.955Z,71.07
2023-03-21T19:21:47.021Z,70.70
2023-03-21T19:24:35.591Z,71.34
2023-03-21T19:27:25.798Z,71.96
2023-03-21T19:30:16.084Z,72.13
2023-03-21T19:33:05.106Z,72.17
2023-03-21T19:36:10.693Z,72.23
2023-03-21T19:38:59.580Z,72.05
2023-03-21T19:41:48.222Z,73.35
2023-03-21T19:44:38.373Z,74.60
2023-03-21T19:47:27.076Z,75.28
2023-03-21T19:50:47.368Z,75.63
2023-03-21T19:53:24.515Z,75.15
2023-03-21T19:56:21.562Z,75.09
2023-03-21T19:59:12.232Z,75.36
2023-03-21T20:02:25.034Z,75.33
2023-03-21T20:05:10.917Z,75.47
2023-03-21T20:07:59.640Z,75.50
2023-03-21T20:10:48.171Z,76.45
2023-03-21T20:13:36.741Z,77.14
2023-03-21T20:16:25.299Z,77.56
2023-03-21T20:19:16.186Z,78.43
2023-03-21T20:22:07.995Z,78.95
2023-03-21T20:25:08.762Z,78.91
2023-03-21T20:28:14.697Z,78.37
2023-03-21T20:31:05.184Z,77.89
2023-03-21T20:33:53.732Z,77.74
2023-03-21T20:36:44.104Z,78.38
2023-03-21T20:39:32.681Z,78.77
2023-03-21T20:42:21.211Z,78.82
2023-03-21T20:45:11.899Z,79.43
2023-03-21T20:48:00.735Z,79.95
2023-03-21T20:50:51.867Z,80.02
2023-03-21T20:53:41.868Z,79.82
2023-03-21T20:56:30.817Z,80.05
2023-03-21T20:59:26.589Z,79.89
2023-03-21T21:02:15.983Z,79.76
2023-03-21T21:05:27.821Z,80.00
2023-03-21T21:08:18.992Z,80.47
2023-03-21T21:11:56.906Z,80.71
2023-03-21T21:14:17.695Z,80.82
2023-03-21T21:17:23.814Z,81.16
2023-03-21T21:20:17.475Z,82.02
2023-03-21T21:23:06.195Z,82.93
2023-03-21T21:25:55.495Z,84.01
2023-03-21T21:28:46.755Z,84.86
2023-03-21T21:31:35.247Z,85.16
2023-03-21T21:34:24.397Z,85.16
2023-03-21T21:37:12.946Z,85.73
2023-03-21T21:40:12.619Z,85.54
2023-03-21T21:43:03.536Z,85.93
2023-03-21T21:45:53.933Z,86.38
2023-03-21T21:48:42.537Z,86.69
2023-03-21T21:51:34.012Z,86.86
2023-03-21T21:54:22.522Z,87.08
2023-03-21T21:57:13.542Z,87.42
2023-03-21T22:00:06.132Z,88.74
2023-03-21T22:02:56.120Z,89.04
2023-03-21T22:05:45.374Z,90.04
2023-03-21T22:08:33.944Z,90.22
2023-03-21T22:11:22.372Z,90.75
2023-03-21T22:14:10.928Z,91.25
2023-03-21T22:17:00.052Z,91.59
2023-03-21T22:20:04.325Z,91.03
2023-03-21T22:22:56.617Z,92.17
2023-03-21T22:25:50.897Z,92.44
2023-03-21T22:28:42.149Z,92.54
2023-03-21T22:31:32.167Z,93.04
2023-03-21T22:34:21.681Z,96.56
2023-03-21T22:37:11.549Z,97.93
2023-03-21T22:40:00.180Z,96.62
2023-03-21T22:42:48.694Z,96.55
2023-03-21T22:45:37.265Z,96.81
2023-03-21T22:48:25.885Z,95.58
2023-03-21T22:51:14.426Z,95.49
2023-03-21T22:54:04.350Z,95.88
2023-03-21T22:56:52.809Z,95.18
2023-03-21T22:59:41.654Z,96.23
2023-03-21T23:02:30.327Z,96.96
2023-03-21T23:05:19.025Z,97.79
2023-03-21T23:08:07.507Z,99.14
2023-03-21T23:10:57.431Z,99.29
2023-03-21T23:13:51.598Z,99.75
2023-03-21T23:16:47.510Z,99.21
2023-03-21T23:19:36.070Z,99.93
2023-03-21T23:22:24.621Z,100.00
2023-03-21T23:25:13.585Z,100.00
2023-03-21T23:28:03.518Z,100.00
2023-03-21T23:30:51.961Z,100.00
2023-03-21T23:33:40.460Z,100.00
2023-03-21T23:36:29.420Z,100.00
2023-03-21T23:39:18.603Z,100.00
2023-03-21T23:42:07.458Z,100.00
2023-03-21T23:44:57.288Z,100.00
2023-03-21T23:47:45.803Z,100.00
2023-03-21T23:50:34.714Z,100.00
2023-03-21T23:53:23.289Z,100.00
2023-03-21T23:56:13.235Z,100.00
2023-03-21T23:59:01.710Z,100.00
